Hoppa till innehåll

METAR väder och rapporter - ESMS

Nedan listas information från vald flygplats. Andra METARs finns längre ned på sidan. Kontakta oss om någon saknas eller skriv in egen ICAO-kod.

Coded METAR: 2022/01/28 16:20 ESMS 281620Z 29006KT CAVOK 00/M06 Q1024

Weather Report @ ESMS

Issued: 28th Jan 2022 at 17:20 CET

Wind: light breeze from West-Northwest (290 degrees) at 6 knots (7 mph, 11 kph, 3 mps, Force 2)
Weather: good visibility and no low cloud (ceiling and visibility OK)
Temperature: 32F / 0C
Dewpoint: 21F / -6C
Humidity: 64%
Pressure: 1024 hPa

Coded TAF: 2022/01/28 15:09 TAF TAF ESMS 281402Z 2815/2915 32012KT CAVOK BECMG 2817/2820 26008KT BECMG 2900/2903 4000 RADZ BKN006 TEMPO 2903/2915 2000 BR BKN002 BECMG 2905/2907 24015G25KT BECMG 2911/2913 25024G40KT

Weather Forecast @ ESMS

Issued: 28th Jan 2022 at 16:09 CET

Valid : 28th Jan 16:00 until 29th Jan 16:00 CET

16:00 CET
Wind: moderate breeze from the Northwest (320 degrees) at 12 knots (14 mph, 22 kph, 6 mps, Force 4)
Weather: good visibility and no low cloud (ceiling and visibility OK)

18:00 CET to 21:00 CET
becoming:

Wind: gentle breeze from the West (260 degrees) at 8 knots (9 mph, 15 kph, 4 mps, Force 3)

01:00 CET to 04:00 CET
becoming:

Visibility: 4000 metres
Weather: rain and drizzle
Cloud: broken at 600 feet

04:00 CET to 16:00 CET
Occasional

Visibility: 2000 metres
Weather: mist
Cloud: broken at 200 feet

06:00 CET to 08:00 CET
becoming:

Wind: moderate breeze from West-Southwest (240 degrees) at 15 knots (17 mph, 28 kph, 8 mps, Force 4) gusting to 25 knots (29 mph 46 kph, 13 mps)

12:00 CET to 14:00 CET
becoming:

Wind: strong breeze from West-Southwest (250 degrees) at 24 knots (28 mph, 44 kph, 12 mps, Force 6) gusting to 40 knots (46 mph 74 kph, 21 mps)

Internet delivery of weather data is not secure or reliable enough for operational purposes.

NEVER RELY ON THE OUTPUT OF THIS SCRIPT TO MAKE DECISIONS ABOUT ANYTHING IN WHICH THE WEATHER FORECAST AND ITS INTERPRETATION COULD BE AN ISSUE OF SAFETY.

Andra intressanta METARs

Klicka på önskad rubrik nedan för att visa nuvarande väder för den platsen.

Avstånd från stationen: NO 27kmESGG - Göteborg (Landvetter)
Uppdaterad: 2022-01-28 17:20
 Vind från SSV
Vind: SSV 15 km/h
Temperatur: -1°C
Vindavkylning: -6°C
Daggpunkt: -5°C
Luftfuktighet: 75%
Barometer: 1021 hPa
Summering: Klart
Sikt: mer än 10 km
2022/01/28 16:20 ESGG 281620Z 21008KT CAVOK M01/M05 Q1021
Klart
Klart
  Visa detaljer för Göteborg (Landvetter)
Avstånd från stationen: N 28kmESGP - Göteborg (Säve)
Uppdaterad: 2022-01-28 17:20
 Vind från SSV
Vind: SSV 11 km/h
Temperatur: 0°C
Vindavkylning: -4°C
Daggpunkt: -4°C
Luftfuktighet: 75%
Barometer: 1021 hPa
Summering: Klart
Sikt: mer än 10 km
2022/01/28 16:20 ESGP 281620Z 21006KT CAVOK 00/M04 Q1021
Klart
Klart
  Visa detaljer för Göteborg (Säve)
Avstånd från stationen: NO 419kmESSA - Stockholm (Arlanda)
Uppdaterad: 2022-01-28 17:20
 Vind från VNV
Vind: VNV 19 km/h
Temperatur: -2°C
Vindavkylning: -8°C
Daggpunkt: -7°C
Luftfuktighet: 69%
Barometer: 1016 hPa
Summering: Klart
Sikt: mer än 10 km
2022/01/28 16:20 ESSA 281620Z 29010KT CAVOK M02/M07 Q1016 NOSIG
Klart
Klart
  Visa detaljer för Stockholm (Arlanda)
Avstånd från stationen: ONO 404kmESSB - Stockholm (Bromma)
Uppdaterad: 2022-01-28 17:20
 Vind från VNV
Vind: VNV 22 km/h
Temperatur: 0°C
Vindavkylning: -6°C
Daggpunkt: -6°C
Luftfuktighet: 64%
Barometer: 1016 hPa
Summering: Klart
Sikt: mer än 10 km
2022/01/28 16:20 ESSB 281620Z 29012KT CAVOK M00/M06 Q1016
Klart
Klart
  Visa detaljer för Stockholm (Bromma)
Avstånd från stationen: ONO 323kmESKN - Stockholm (Skavsta)
Uppdaterad: 2022-01-28 17:20
 Vind från V
Vind: V 19 km/h
Temperatur: 0°C
Vindavkylning: -5°C
Daggpunkt: -6°C
Luftfuktighet: 64%
Barometer: 1018 hPa
Summering: Klart
Sikt: mer än 10 km
2022/01/28 16:20 ESKN 281620Z 28010KT CAVOK M00/M06 Q1018
Klart
Klart
  Visa detaljer för Stockholm (Skavsta)
Avstånd från stationen: SSO 238kmESMS - Malmö flygplats (Sturup)
Uppdaterad: 2022-01-28 17:20
 Vind från VNV
Vind: VNV 11 km/h
Temperatur: 0°C
Vindavkylning: -4°C
Daggpunkt: -6°C
Luftfuktighet: 64%
Barometer: 1024 hPa
Summering: Klart
Sikt: mer än 10 km
2022/01/28 16:20 ESMS 281620Z 29006KT CAVOK 00/M06 Q1024
Klart
Klart
  Visa detaljer för Malmö flygplats (Sturup)
Avstånd från stationen: O 382kmESSV - Visby flygplats
Uppdaterad: 2022-01-28 17:20
 Vind från NV
Vind: NV 41 km/h
Temperatur: 2°C
Vindavkylning: -4°C
Daggpunkt: -5°C
Luftfuktighet: 60%
Barometer: 1017 hPa
Summering: Klart
Sikt: mer än 10 km
2022/01/28 16:20 ESSV 281620Z 32022KT CAVOK 02/M05 Q1017
Klart
Klart
  Visa detaljer för Visby flygplats
Avstånd från stationen: NNO 92kmESGT - Trollhättan
Uppdaterad: 2022-01-28 17:20
 Vind från SSV
Vind: SSV 9 km/h
Temperatur: 0°C
Vindavkylning: -3°C
Daggpunkt: -6°C
Luftfuktighet: 64%
Barometer: 1020 hPa
Moln: Klart
Sikt: 10 km
2022/01/28 16:20 ESGT 281620Z AUTO 21005KT 9999 NCD M00/M06 Q1020
Klart
Klart
  Visa detaljer för Trollhättan
Avstånd från stationen: ONO 129kmESGJ - Jönköpings flygplats
Uppdaterad: 2022-01-28 17:20
 Vind från SV
Vind: SV 7 km/h
Temperatur: -3°C
Vindavkylning: -6°C
Daggpunkt: -7°C
Luftfuktighet: 74%
Barometer: 1020 hPa
Moln: Klart
Sikt: 10 km
2022/01/28 16:20 ESGJ 281620Z AUTO 22004KT 9999 NCD M03/M07 Q1020
Klart
Klart
  Visa detaljer för Jönköpings flygplats
Avstånd från stationen: NNO 229kmESOK - Karlstad
Uppdaterad: 2022-01-28 17:20
 Vind från SSV
Vind: SSV 11 km/h
Temperatur: -2°C
Vindavkylning: -6°C
Daggpunkt: -7°C
Luftfuktighet: 69%
Barometer: 1018 hPa
Moln: Klart
Sikt: 10 km
2022/01/28 16:20 ESOK 281620Z AUTO 21006KT 9999 NCD M02/M07 Q1018
Klart
Klart
  Visa detaljer för Karlstad
Avstånd från stationen: N 643kmESNZ - Östersund (Frösön)
Uppdaterad: 2022-01-28 17:20
 Vind från S
Vind: S 19 km/h
Temperatur: -2°C
Vindavkylning: -8°C
Daggpunkt: -6°C
Luftfuktighet: 74%
Barometer: 1008 hPa
Moln: Några få moln
Sikt: 10 km
Molninformation: Några få moln 610 m
2022/01/28 16:20 ESNZ 281620Z 18010KT 9999 FEW020 M02/M06 Q1008
Några få moln
Några få moln
  Visa detaljer för Östersund (Frösön)
Avstånd från stationen: SSO 216kmEKCH - Köpenhamn (Kastrup)
Uppdaterad: 2022-01-28 17:20
 Vind från V
Vind: V 13 km/h
Temperatur: 2°C
Vindavkylning: -1°C
Daggpunkt: -5°C
Luftfuktighet: 60%
Barometer: 1025 hPa
Moln: Klart
Sikt: 10 km
2022/01/28 16:20 EKCH 281620Z AUTO 28007KT 9999 NCD 02/M05 Q1025 NOSIG
Klart
Klart
  Visa detaljer för Köpenhamn (Kastrup)
Avstånd från stationen: SV 263kmEKBI - Billund Airport
Uppdaterad: 2022-01-28 17:20
 Vind från VSV
Vind: VSV 11 km/h
Temperatur: 4°C
Vindavkylning: 1°C
Daggpunkt: 0°C
Luftfuktighet: 75%
Barometer: 1026 hPa
Moln: Genommulet
Sikt: 10 km
Molninformation: Genommulet 975 m
2022/01/28 16:20 EKBI 281620Z AUTO 25006KT 9999 OVC032/// 04/M00 Q1026
Genommulet
Genommulet
  Visa detaljer för Billund Airport
Avstånd från stationen: N 302kmENGM - Oslo (Gardermoen)
Uppdaterad: 2022-01-28 17:20
 Vind från S
Vind: S 11 km/h
Temperatur: 0°C
Vindavkylning: -4°C
Daggpunkt: -8°C
Luftfuktighet: 55%
Barometer: 1016 hPa
Summering: Skurar i närheten
Moln: Delvis molnigt
Sikt: 10 km
2022/01/28 16:20 ENGM 281620Z 19006KT 9999 VCSH NSC M00/M08 Q1016 NOSIG
Nearby showers, Delvis molnigt
Nearby showers
Delvis molnigt
  Visa detaljer för Oslo (Gardermoen)
Avstånd från stationen: NO 540kmEFMA - Mariehamn / Åland
Uppdaterad: 2022-01-28 17:20
 Vind från NNV
Vind: NNV 17 km/h
Temperatur: 0°C
Vindavkylning: -4°C
Daggpunkt: -6°C
Luftfuktighet: 64%
Barometer: 1013 hPa
Summering: Klart
Sikt: mer än 10 km
2022/01/28 16:20 EFMA 281620Z AUTO 33009KT 290V350 CAVOK M00/M06 Q1013
Klart
Klart
  Visa detaljer för Mariehamn / Åland
Avstånd från stationen: S 558kmEDDT - Berlin (Tegel), Germany
Uppdaterad: 2020-11-09 07:50
Ej aktuell
 Vind från O
Vind: O 11 km/h
Temperatur: 6°C
Vindavkylning: 4°C
Daggpunkt: 5°C
Luftfuktighet: 93%
Barometer: 1027 hPa
Summering: Dimmigt
Moln: Genommulet
Sikt: 3 km
Molninformation: Genommulet 91 m
2020/11/09 06:50 EDDT 090650Z 09006KT 050V120 3000 BR OVC003 06/05 Q1027
Dimmigt, Genommulet
Dimmigt
Genommulet
  Visa detaljer för Berlin (Tegel), Germany
Avstånd från stationen: SV 737kmEHAM - Amsterdam (Schiphol)
Uppdaterad: 2022-01-28 17:25
 Vind från VSV
Vind: VSV 19 km/h
Temperatur: 7°C
Vindavkylning: 4°C
Daggpunkt: 5°C
Luftfuktighet: 87%
Barometer: 1032 hPa
Moln: Övervägande molnigt
Sikt: 10 km
Molninformation: Några få moln 305 m
Delvis molnigt 396 m
Övervägande molnigt 488 m
2022/01/28 16:25 EHAM 281625Z 24010KT 9999 FEW010 SCT013 BKN016 07/05 Q1032 TEMPO BKN013
Övervägande molnigt
Övervägande molnigt
  Visa detaljer för Amsterdam (Schiphol)
Avstånd från stationen: ONO 808kmEFHK - Helsingfors (Vantaa)
Uppdaterad: 2022-01-28 17:20
 Vind från NV
Vind: NV 20 km/h
Temperatur: -2°C
Vindavkylning: -8°C
Daggpunkt: -4°C
Luftfuktighet: 86%
Barometer: 1006 hPa
Moln: Delvis molnigt
Sikt: 10 km
Molninformation: Delvis molnigt 1219 m
2022/01/28 16:20 EFHK 281620Z 32011KT 9999 SCT040 M02/M04 Q1006 NOSIG
Delvis molnigt
Delvis molnigt
  Visa detaljer för Helsingfors (Vantaa)
Avstånd från stationen: SSV 537kmEDDW - Bremen
Uppdaterad: 2022-01-28 17:20
 Vind från V
Vind: V 15 km/h
Temperatur: 6°C
Vindavkylning: 3°C
Daggpunkt: 0°C
Luftfuktighet: 66%
Barometer: 1031 hPa
Moln: Övervägande molnigt
Sikt: 10 km
Molninformation: Övervägande molnigt 1006 m
2022/01/28 16:20 EDDW 281620Z 27008KT 9999 BKN033 06/00 Q1031 NOSIG
Övervägande molnigt
Övervägande molnigt
  Visa detaljer för Bremen
Avstånd från stationen: SSV 861kmEDDF - Frankfurt am Main
Uppdaterad: 2022-01-28 17:20
 Vind från VNV
Vind: VNV 9 km/h
Temperatur: 6°C
Vindavkylning: 4°C
Daggpunkt: 0°C
Luftfuktighet: 66%
Barometer: 1034 hPa
Moln: Några få moln
Sikt: 10 km
Molninformation: Några få moln 1219 m
2022/01/28 16:20 EDDF 281620Z 29005KT 9999 FEW040 06/00 Q1034 NOSIG
Några få moln
Några få moln
  Visa detaljer för Frankfurt am Main
Avstånd från stationen: SV 880kmEBBR - Bryssel international
Uppdaterad: 2022-01-28 17:20
 Vind från SSV
Vind: SSV 7 km/h
Temperatur: 6°C
Vindavkylning: 4°C
Daggpunkt: 4°C
Luftfuktighet: 87%
Barometer: 1035 hPa
Moln: Övervägande molnigt
Sikt: 7 km
Molninformation: Övervägande molnigt 305 m
Övervägande molnigt 610 m
2022/01/28 16:20 EBBR 281620Z 20004KT 7000 BKN010 BKN020 06/04 Q1035
Övervägande molnigt
Övervägande molnigt
  Visa detaljer för Bryssel international
Avstånd från stationen: SV 738kmEHAM - Amsterdam (Schiphol)
Uppdaterad: 2022-01-28 17:25
 Vind från VSV
Vind: VSV 19 km/h
Temperatur: 7°C
Vindavkylning: 4°C
Daggpunkt: 5°C
Luftfuktighet: 87%
Barometer: 1032 hPa
Moln: Övervägande molnigt
Sikt: 10 km
Molninformation: Några få moln 305 m
Delvis molnigt 396 m
Övervägande molnigt 488 m
2022/01/28 16:25 EHAM 281625Z 24010KT 9999 FEW010 SCT013 BKN016 07/05 Q1032 TEMPO BKN013
Övervägande molnigt
Övervägande molnigt
  Visa detaljer för Amsterdam (Schiphol)
Avstånd från stationen: SV 1044kmEGLL - London (Heathrow)
Uppdaterad: 2022-01-28 17:20
 Vind från VSV
Vind: VSV 15 km/h
Temperatur: 8°C
Vindavkylning: 5°C
Daggpunkt: 4°C
Luftfuktighet: 76%
Barometer: 1033 hPa
Moln: Några få moln
Sikt: 10 km
Molninformation: Några få moln 762 m
2022/01/28 16:20 EGLL 281620Z AUTO 25008KT 9999 FEW025 08/04 Q1033
Några få moln
Några få moln
  Visa detaljer för London (Heathrow)
Avstånd från stationen: SV 1132kmLFPG - Paris (Charles de Gaulle)
Uppdaterad: 2022-01-28 17:30
 Vind från SV
Vind: SV 17 km/h
Temperatur: 7°C
Vindavkylning: 4°C
Daggpunkt: 3°C
Luftfuktighet: 76%
Barometer: 1036 hPa
Moln: Övervägande molnigt
Sikt: 10 km
Molninformation: Delvis molnigt 549 m
Övervägande molnigt 610 m
2022/01/28 16:30 LFPG 281630Z 22009KT 9999 SCT018 BKN020 07/03 Q1036 NOSIG
Övervägande molnigt
Övervägande molnigt
  Visa detaljer för Paris (Charles de Gaulle)
Avstånd från stationen: SSV 1142kmLSZH - Zürich Airport
Uppdaterad: 2022-01-28 17:20
 Vind från V
Vind: V 9 km/h
Temperatur: 4°C
Vindavkylning: 2°C
Daggpunkt: -1°C
Luftfuktighet: 70%
Barometer: 1035 hPa
Moln: Några få moln
Sikt: 10 km
Molninformation: Några få moln 823 m
2022/01/28 16:20 LSZH 281620Z 28005KT 9999 FEW027 04/M01 Q1035 NOSIG
Några få moln
Några få moln
  Visa detaljer för Zürich Airport
Avstånd från stationen: S 1749kmLIRF - Rome Airport (Fiumicino - Leonardo da Vinci)
Uppdaterad: 2022-01-28 17:20
 Vind från VNV
Vind: VNV 11 km/h
Temperatur: 12°C
Daggpunkt: 8°C
Luftfuktighet: 77%
Barometer: 1023 hPa
Summering: Klart
Sikt: mer än 10 km
2022/01/28 16:20 LIRF 281620Z 29006KT CAVOK 12/08 Q1023 NOSIG
Klart
Klart
  Visa detaljer för Rome Airport (Fiumicino - Leonardo da Vinci)
Avstånd från stationen: SO 2679kmLTAI - Antalya
Uppdaterad: 2022-01-28 17:20
 Vind från NV
Vind: NV 7 km/h
Temperatur: 8°C
Vindavkylning: 7°C
Daggpunkt: -8°C
Luftfuktighet: 32%
Barometer: 1020 hPa
Summering: Klart
Sikt: mer än 10 km
2022/01/28 16:20 LTAI 281620Z 31004KT CAVOK 08/M08 Q1020 NOSIG
Klart
Klart
  Visa detaljer för Antalya
Avstånd från stationen: VSV 6074kmKJFK - New Your (JFK)
Uppdaterad: 2022-01-28 17:26
 Vind från calm
Vind: Vindstilla
Temperatur: -1°C
Daggpunkt: -3°C
Luftfuktighet: 86%
Barometer: 1021 hPa
Summering: Light snow, Dimmigt
Moln: Genommulet
Sikt: 6 km
Molninformation: Några få moln 518 m
Delvis molnigt 975 m
Genommulet 1676 m
2022/01/28 16:26 KJFK 281626Z 00000KT 4SM -SN BR FEW017 SCT032 OVC055 M01/M03 A3015 RMK AO2 P0000 T10061028
Light snow, Dimmigt, Genommulet
Light snow
Dimmigt
Genommulet
  Visa detaljer för New Your (JFK)
Avstånd från stationen: VSV 8848kmKLAX - Los Angeles International Airport
Uppdaterad: 2022-01-28 16:53
 Vind från ONO
Vind: ONO 7 km/h
Temperatur: 13°C
Daggpunkt: -4°C
Luftfuktighet: 31%
Barometer: 1024.7 hPa
Moln: Övervägande molnigt
Sikt: 16 km
Molninformation: Några få moln 7315 m
Övervägande molnigt 9144 m
2022/01/28 15:53 KLAX 281553Z 07004KT 10SM FEW240 BKN300 13/M04 A3026 RMK AO2 SLP246 T01331044
Övervägande molnigt
Övervägande molnigt
  Visa detaljer för Los Angeles International Airport
Avstånd från stationen: SO 4968kmOMDB - Dubai International Airport
Uppdaterad: 2022-01-28 17:00
 Vind från NV
Vind: NV 9 km/h
Temperatur: 23°C
Daggpunkt: 16°C
Luftfuktighet: 65%
Barometer: 1018 hPa
Summering: Klart
Sikt: mer än 10 km
2022/01/28 16:00 OMDB 281600Z 32005KT 290V350 CAVOK 23/16 Q1018 NOSIG
Klart
Klart
  Visa detaljer för Dubai International Airport
Avstånd från stationen: OSO 8570kmRJTT - Tokyo International Airport
Uppdaterad: 2022-01-28 17:30
 Vind från N
Vind: N 31 km/h
Temperatur: 6°C
Vindavkylning: 1°C
Daggpunkt: -4°C
Luftfuktighet: 49%
Barometer: 1013 hPa
Moln: Övervägande molnigt
Sikt: 10 km
Molninformation: Några få moln 1524 m
Övervägande molnigt 2134 m
2022/01/28 16:30 RJTT 281630Z 35017KT 9999 FEW050 BKN070 06/M04 Q1013 NOSIG RMK 1SC050 5AC070 A2993
Övervägande molnigt
Övervägande molnigt
  Visa detaljer för Tokyo International Airport
Avstånd från stationen: OSO 7125kmZBAA - Peking (Beijing Capital)
Uppdaterad: 2022-01-28 17:30
 Vind från N
Vind: N 7 km/h
Temperatur: -6°C
Vindavkylning: -9°C
Daggpunkt: -14°C
Luftfuktighet: 54%
Barometer: 1029 hPa
Summering: Klart
Sikt: mer än 10 km
2022/01/28 16:30 ZBAA 281630Z 35002MPS CAVOK M06/M14 Q1029 NOSIG
Klart
Klart
  Visa detaljer för Peking (Beijing Capital)
VÄDER KURIOSA -  Weather TermsDew Point - A measure of atmospheric moisture. It is the temperature to which air must be cooled in order to reach saturation (assuming pressure and moisture content are constant).